createdAt,value
2019-04-30T00:00:47.665Z,80.54
2019-04-30T00:03:29.642Z,80.91
2019-04-30T00:06:00.092Z,81.46
2019-04-30T00:08:35.422Z,81.72
2019-04-30T00:11:01.474Z,82.22
2019-04-30T00:13:31.084Z,82.64
2019-04-30T00:16:01.621Z,83.59
2019-04-30T00:18:35.271Z,84.96
2019-04-30T00:21:01.625Z,84.86
2019-04-30T00:23:31.001Z,84.80
2019-04-30T00:26:10.632Z,85.05
2019-04-30T00:28:46.233Z,84.73
2019-04-30T00:31:11.386Z,85.14
2019-04-30T00:33:40.814Z,84.91
2019-04-30T00:36:10.329Z,85.00
2019-04-30T00:38:39.861Z,85.03
2019-04-30T00:41:10.311Z,84.84
2019-04-30T00:43:46.590Z,84.34
2019-04-30T00:46:10.561Z,84.66
2019-04-30T00:48:40.002Z,85.11
2019-04-30T00:51:18.130Z,85.20
2019-04-30T00:53:43.919Z,84.96
2019-04-30T00:56:10.632Z,84.55
2019-04-30T00:58:41.074Z,84.27
2019-04-30T01:01:28.279Z,84.37
2019-04-30T01:04:05.192Z,83.78
2019-04-30T01:06:35.008Z,83.50
2019-04-30T01:09:07.793Z,84.30
2019-04-30T01:11:35.589Z,84.33
2019-04-30T01:14:05.391Z,84.07
2019-04-30T01:16:34.482Z,84.14
2019-04-30T01:19:05.775Z,83.82
2019-04-30T01:21:34.709Z,83.57
2019-04-30T01:24:04.386Z,83.65
2019-04-30T01:26:33.805Z,83.40
2019-04-30T01:29:03.874Z,83.71
2019-04-30T01:31:37.350Z,84.05
2019-04-30T01:34:05.121Z,84.30
2019-04-30T01:36:35.596Z,84.37
2019-04-30T01:39:05.794Z,84.37
2019-04-30T01:41:35.342Z,84.46
2019-04-30T01:44:08.703Z,84.72
2019-04-30T01:46:39.085Z,84.42
2019-04-30T01:49:08.767Z,84.06
2019-04-30T01:51:38.703Z,84.24
2019-04-30T01:54:09.250Z,83.83
2019-04-30T01:57:06.790Z,84.11
2019-04-30T01:59:53.429Z,83.84
2019-04-30T02:02:24.546Z,83.04
2019-04-30T02:04:53.620Z,83.59
2019-04-30T02:07:22.649Z,83.76
2019-04-30T02:09:52.470Z,83.58
2019-04-30T02:12:21.853Z,83.30
2019-04-30T02:14:51.834Z,83.04
2019-04-30T02:17:21.915Z,83.36
2019-04-30T02:19:56.663Z,83.00
2019-04-30T02:22:21.767Z,82.20
2019-04-30T02:24:51.244Z,81.95
2019-04-30T02:27:21.640Z,82.29
2019-04-30T02:29:50.920Z,81.92
2019-04-30T02:32:22.041Z,81.15
2019-04-30T02:37:30.736Z,81.11
2019-04-30T02:40:00.825Z,81.71
2019-04-30T02:42:30.972Z,81.42
2019-04-30T02:45:03.713Z,81.98
2019-04-30T02:47:39.815Z,81.44
2019-04-30T02:50:15.569Z,81.80
2019-04-30T02:52:41.026Z,81.71
2019-04-30T02:55:13.380Z,81.38
2019-04-30T02:57:42.576Z,81.17
2019-04-30T03:00:20.547Z,81.61
2019-04-30T03:02:50.578Z,81.78
2019-04-30T03:05:20.483Z,81.16
2019-04-30T03:07:53.340Z,81.11
2019-04-30T03:10:20.904Z,81.06
2019-04-30T03:12:50.358Z,80.86
2019-04-30T03:15:22.748Z,80.24
2019-04-30T03:18:05.158Z,80.64
2019-04-30T03:20:43.527Z,80.64
2019-04-30T03:23:15.747Z,80.03
2019-04-30T03:25:45.410Z,80.52
2019-04-30T03:28:14.678Z,79.99
2019-04-30T03:30:43.966Z,79.67
2019-04-30T03:33:15.471Z,79.58
2019-04-30T03:35:47.654Z,79.11
2019-04-30T03:38:15.670Z,79.62
2019-04-30T03:40:46.181Z,79.79
2019-04-30T03:43:15.798Z,79.46
2019-04-30T03:45:45.035Z,79.39
2019-04-30T03:48:15.491Z,79.32
2019-04-30T03:50:53.459Z,78.92
2019-04-30T03:53:20.217Z,78.97
2019-04-30T03:55:50.598Z,79.35
2019-04-30T03:58:21.307Z,78.75
2019-04-30T04:01:00.376Z,78.73
2019-04-30T04:03:34.130Z,78.85
2019-04-30T04:06:23.155Z,78.81
2019-04-30T04:09:10.264Z,78.72
2019-04-30T04:11:41.794Z,78.56
2019-04-30T04:14:11.273Z,78.22
2019-04-30T04:16:41.088Z,78.82
2019-04-30T04:19:10.375Z,78.39
2019-04-30T04:21:39.545Z,78.14
2019-04-30T04:24:10.624Z,77.73
2019-04-30T04:26:40.828Z,76.74
2019-04-30T04:29:12.483Z,77.32
2019-04-30T04:31:41.812Z,78.00
2019-04-30T04:34:11.321Z,77.39
2019-04-30T04:36:43.322Z,77.16
2019-04-30T04:39:11.451Z,76.86
2019-04-30T04:41:44.042Z,77.11
2019-04-30T04:44:13.067Z,76.71
2019-04-30T04:46:42.805Z,76.87
2019-04-30T04:49:12.330Z,77.03
2019-04-30T04:51:42.434Z,77.01
2019-04-30T04:54:11.979Z,77.14
2019-04-30T04:56:41.565Z,77.07
2019-04-30T04:59:10.808Z,76.99
2019-04-30T05:01:40.021Z,76.77
2019-04-30T05:04:12.285Z,76.92
2019-04-30T05:06:41.668Z,75.84
2019-04-30T05:09:11.200Z,75.54
2019-04-30T05:11:40.873Z,75.73
2019-04-30T05:14:15.566Z,75.48
2019-04-30T05:16:44.936Z,76.02
2019-04-30T05:19:18.670Z,75.41
2019-04-30T05:21:51.480Z,75.14
2019-04-30T05:24:28.685Z,74.39
2019-04-30T05:27:05.054Z,73.94
2019-04-30T05:29:38.683Z,73.21
2019-04-30T05:32:23.475Z,72.87
2019-04-30T05:34:54.238Z,72.06
2019-04-30T05:37:29.499Z,71.75
2019-04-30T05:43:55.252Z,70.90
2019-04-30T05:46:36.837Z,70.86
2019-04-30T05:49:20.501Z,71.41
2019-04-30T05:51:55.797Z,71.10
2019-04-30T05:54:53.145Z,70.53
2019-04-30T05:57:34.565Z,70.04
2019-04-30T06:00:19.193Z,69.74
2019-04-30T06:02:59.986Z,69.77
2019-04-30T06:06:08.822Z,69.61
2019-04-30T06:08:49.057Z,69.46
2019-04-30T06:11:36.016Z,69.49
2019-04-30T06:14:33.258Z,69.12
2019-04-30T06:17:26.219Z,69.23
2019-04-30T06:20:17.872Z,69.16
2019-04-30T06:23:09.830Z,69.46
2019-04-30T06:25:57.273Z,68.99
2019-04-30T06:28:21.606Z,68.33
2019-04-30T06:30:51.170Z,68.35
2019-04-30T06:33:21.775Z,68.17
2019-04-30T06:35:51.508Z,67.52
2019-04-30T06:38:21.134Z,67.10
2019-04-30T06:40:50.407Z,67.01
2019-04-30T06:43:20.275Z,67.37
2019-04-30T06:45:51.249Z,66.96
2019-04-30T06:48:21.179Z,66.86
2019-04-30T06:50:50.880Z,66.53
2019-04-30T06:53:20.405Z,66.73
2019-04-30T06:55:49.866Z,66.57
2019-04-30T06:58:20.528Z,66.55
2019-04-30T07:01:06.395Z,66.34
2019-04-30T07:03:38.773Z,66.55
2019-04-30T07:06:29.096Z,66.26
2019-04-30T07:09:14.982Z,66.24
2019-04-30T07:11:52.333Z,65.61
2019-04-30T07:14:21.734Z,65.67
2019-04-30T07:16:51.175Z,65.95
2019-04-30T07:19:31.972Z,66.17
2019-04-30T07:21:54.274Z,66.37
2019-04-30T07:24:24.238Z,66.37
2019-04-30T07:26:58.387Z,65.98
2019-04-30T07:29:29.496Z,65.63
2019-04-30T07:31:59.288Z,65.97
2019-04-30T07:34:29.726Z,65.68
2019-04-30T07:37:11.793Z,64.93
2019-04-30T07:39:33.382Z,65.23
2019-04-30T07:42:04.872Z,64.98
2019-04-30T07:44:36.592Z,64.87
2019-04-30T07:47:06.536Z,64.49
2019-04-30T07:49:46.773Z,64.77
2019-04-30T07:52:07.450Z,64.45
2019-04-30T07:54:40.049Z,64.19
2019-04-30T07:57:32.692Z,63.98
2019-04-30T08:00:12.175Z,63.25
2019-04-30T08:02:50.512Z,62.96
2019-04-30T08:05:29.891Z,61.87
2019-04-30T08:08:16.808Z,62.43
2019-04-30T08:10:30.501Z,62.56
2019-04-30T08:13:08.320Z,61.47
2019-04-30T08:15:33.279Z,60.82
2019-04-30T08:18:05.953Z,60.92
2019-04-30T08:20:35.476Z,60.30
2019-04-30T08:23:15.573Z,60.21
2019-04-30T08:25:36.512Z,59.91
2019-04-30T08:28:09.101Z,59.29
2019-04-30T08:30:39.180Z,57.24
2019-04-30T08:33:09.477Z,56.20
2019-04-30T08:35:39.802Z,56.46
2019-04-30T08:38:10.857Z,55.78
2019-04-30T08:40:53.258Z,55.85
2019-04-30T08:43:12.283Z,56.33
2019-04-30T08:45:41.560Z,57.21
2019-04-30T08:48:14.256Z,57.25
2019-04-30T08:50:43.525Z,56.98
2019-04-30T08:53:12.854Z,57.17
2019-04-30T08:55:42.435Z,58.11
2019-04-30T08:58:15.081Z,57.04
2019-04-30T09:00:43.021Z,57.40
2019-04-30T09:03:13.577Z,56.08
2019-04-30T09:06:00.261Z,54.93
2019-04-30T09:08:29.709Z,53.84
2019-04-30T09:10:59.632Z,54.03
2019-04-30T09:13:29.690Z,54.18
2019-04-30T09:15:59.494Z,53.17
2019-04-30T09:18:29.200Z,53.32
2019-04-30T09:21:06.039Z,52.83
2019-04-30T09:23:46.692Z,51.73
2019-04-30T09:26:09.128Z,50.13
2019-04-30T09:28:40.812Z,49.02
2019-04-30T09:31:09.821Z,48.01
2019-04-30T09:33:39.432Z,48.26
2019-04-30T09:36:14.986Z,48.86
2019-04-30T09:38:44.358Z,49.51
2019-04-30T09:41:13.690Z,49.00
2019-04-30T09:43:43.915Z,48.48
2019-04-30T09:46:22.007Z,45.46
2019-04-30T09:48:44.497Z,45.38
2019-04-30T09:51:14.475Z,45.54
2019-04-30T09:53:55.757Z,45.59
2019-04-30T09:56:15.238Z,44.67
2019-04-30T09:58:44.729Z,46.38
2019-04-30T10:01:14.429Z,45.74
2019-04-30T10:03:44.530Z,44.86
2019-04-30T10:06:14.166Z,46.05
2019-04-30T10:08:48.322Z,45.15
2019-04-30T10:11:40.984Z,45.72
2019-04-30T10:14:10.506Z,45.79
2019-04-30T10:16:49.525Z,44.43
2019-04-30T10:19:19.184Z,44.42
2019-04-30T10:21:49.075Z,44.16
2019-04-30T10:24:19.596Z,43.03
2019-04-30T10:26:49.318Z,43.21
2019-04-30T10:29:20.896Z,40.74
2019-04-30T10:31:50.477Z,39.18
2019-04-30T10:34:19.751Z,39.10
2019-04-30T10:36:49.622Z,38.97
2019-04-30T10:39:21.798Z,37.95
2019-04-30T10:41:50.176Z,37.39
2019-04-30T10:44:20.387Z,36.82
2019-04-30T10:46:49.744Z,38.44
2019-04-30T10:49:19.793Z,36.54
2019-04-30T10:51:49.241Z,35.04
2019-04-30T10:54:26.160Z,34.68
2019-04-30T10:56:51.339Z,33.88
2019-04-30T10:59:21.479Z,33.37
2019-04-30T11:01:51.147Z,32.42
2019-04-30T11:04:22.129Z,32.33
2019-04-30T11:06:51.523Z,33.29
2019-04-30T11:09:22.617Z,31.24
2019-04-30T11:11:54.364Z,32.07
2019-04-30T11:14:23.612Z,32.91
2019-04-30T11:16:53.353Z,32.83
2019-04-30T11:19:24.273Z,31.95
2019-04-30T11:21:54.106Z,32.05
2019-04-30T11:24:35.929Z,31.65
2019-04-30T11:26:55.121Z,29.90
2019-04-30T11:29:25.350Z,29.17
2019-04-30T11:32:15.496Z,29.02
2019-04-30T11:34:46.540Z,30.05
2019-04-30T11:37:15.986Z,31.35
2019-04-30T11:39:45.748Z,28.65
2019-04-30T11:42:16.423Z,30.36
2019-04-30T11:44:45.716Z,29.92
2019-04-30T11:47:28.416Z,29.01
2019-04-30T11:49:58.531Z,28.58
2019-04-30T11:52:28.054Z,28.40
2019-04-30T11:54:59.493Z,28.26
2019-04-30T11:57:30.197Z,27.72
2019-04-30T11:59:59.877Z,27.81
2019-04-30T12:02:52.488Z,27.34
2019-04-30T12:05:20.835Z,26.89
2019-04-30T12:08:06.842Z,25.93
2019-04-30T12:10:41.148Z,25.97
2019-04-30T12:13:44.880Z,26.56
2019-04-30T12:16:14.644Z,24.77
2019-04-30T12:18:46.889Z,24.98
2019-04-30T12:21:16.486Z,23.95
2019-04-30T12:23:46.209Z,23.66
2019-04-30T12:26:15.534Z,23.86
2019-04-30T12:28:45.012Z,22.71
2019-04-30T12:31:14.439Z,22.35
2019-04-30T12:33:43.717Z,22.65
2019-04-30T12:36:13.933Z,22.85
2019-04-30T12:38:43.243Z,21.78
2019-04-30T12:41:13.000Z,21.57
2019-04-30T12:43:42.309Z,21.34
2019-04-30T12:46:11.836Z,21.51
2019-04-30T12:49:00.041Z,20.93
2019-04-30T12:51:48.822Z,20.06
2019-04-30T12:54:41.892Z,20.05
2019-04-30T12:57:29.528Z,19.01
2019-04-30T13:00:00.620Z,18.44
2019-04-30T13:02:30.079Z,18.70
2019-04-30T13:05:00.483Z,18.23
2019-04-30T13:07:32.499Z,17.79
2019-04-30T13:10:03.823Z,18.33
2019-04-30T13:12:33.939Z,17.25
2019-04-30T13:15:04.197Z,17.39
2019-04-30T13:17:33.533Z,16.88
2019-04-30T13:20:18.189Z,16.68
2019-04-30T13:22:40.197Z,16.35
2019-04-30T13:25:27.530Z,15.68
2019-04-30T13:27:52.923Z,15.36
2019-04-30T13:30:24.673Z,15.62
2019-04-30T13:33:09.460Z,15.42
2019-04-30T13:35:39.771Z,15.43
2019-04-30T13:38:15.876Z,14.91
2019-04-30T13:40:54.772Z,14.42
2019-04-30T13:43:43.536Z,14.56
2019-04-30T13:46:13.735Z,14.98
2019-04-30T13:48:43.095Z,14.09
2019-04-30T13:51:12.693Z,14.15
2019-04-30T13:53:42.370Z,14.00
2019-04-30T13:56:12.120Z,13.06
2019-04-30T13:58:41.577Z,12.99
2019-04-30T14:01:11.610Z,12.46
2019-04-30T14:03:48.923Z,12.74
2019-04-30T14:06:21.896Z,12.30
2019-04-30T14:08:53.151Z,12.38
2019-04-30T14:11:22.850Z,11.93
2019-04-30T14:13:52.671Z,12.20
2019-04-30T14:16:22.873Z,12.89
2019-04-30T14:18:52.331Z,12.18
2019-04-30T14:21:32.302Z,11.67
2019-04-30T14:23:53.128Z,11.27
2019-04-30T14:26:22.503Z,11.54
2019-04-30T14:28:52.215Z,11.61
2019-04-30T14:31:21.626Z,11.49
2019-04-30T14:33:51.100Z,11.58
2019-04-30T14:36:22.794Z,11.33
2019-04-30T14:38:52.245Z,11.68
2019-04-30T14:41:22.209Z,11.72
2019-04-30T14:43:58.824Z,11.19
2019-04-30T14:46:51.114Z,10.89
2019-04-30T14:49:40.500Z,11.22
2019-04-30T14:52:11.121Z,10.68
2019-04-30T14:55:03.811Z,10.85
2019-04-30T14:57:52.996Z,10.73
2019-04-30T15:00:40.288Z,10.28
2019-04-30T15:03:12.454Z,10.28
2019-04-30T15:05:48.807Z,9.51
2019-04-30T15:08:13.517Z,9.66
2019-04-30T15:10:45.193Z,9.46
2019-04-30T15:13:15.427Z,9.77
2019-04-30T15:15:45.615Z,9.29
2019-04-30T15:18:15.252Z,9.36
2019-04-30T15:20:45.132Z,10.05
2019-04-30T15:23:29.590Z,10.44
2019-04-30T15:26:00.018Z,9.73
2019-04-30T15:28:32.306Z,10.34
2019-04-30T15:31:01.141Z,11.37
2019-04-30T15:34:02.535Z,11.77
2019-04-30T15:36:24.949Z,12.19
2019-04-30T15:39:31.846Z,12.28
2019-04-30T15:42:04.627Z,11.48
2019-04-30T15:44:40.215Z,11.67
2019-04-30T15:47:05.707Z,11.35
2019-04-30T15:49:35.452Z,11.68
2019-04-30T15:52:10.606Z,12.32
2019-04-30T15:54:41.669Z,12.78
2019-04-30T15:57:10.988Z,12.27
2019-04-30T15:59:43.832Z,12.75
2019-04-30T16:02:38.803Z,12.32
2019-04-30T16:05:25.467Z,12.23
2019-04-30T16:08:12.555Z,12.68
2019-04-30T16:10:56.350Z,12.57
2019-04-30T16:13:30.576Z,12.80
2019-04-30T16:16:03.296Z,14.38
2019-04-30T16:18:51.716Z,15.37
2019-04-30T16:21:21.276Z,15.65
2019-04-30T16:23:58.501Z,16.37
2019-04-30T16:26:29.127Z,17.09
2019-04-30T16:29:04.511Z,17.25
2019-04-30T16:31:33.932Z,17.69
2019-04-30T16:34:05.630Z,19.22
2019-04-30T16:36:39.099Z,19.49
2019-04-30T16:39:15.416Z,19.52
2019-04-30T16:41:46.129Z,19.72
2019-04-30T16:44:15.700Z,19.85
2019-04-30T16:46:46.408Z,20.31
2019-04-30T16:49:18.752Z,20.71
2019-04-30T16:51:50.042Z,20.87
2019-04-30T16:54:19.886Z,21.11
2019-04-30T16:57:03.406Z,20.92
2019-04-30T16:59:30.710Z,20.50
2019-04-30T17:02:02.777Z,21.59
2019-04-30T17:04:44.953Z,21.60
2019-04-30T17:07:24.285Z,21.20
2019-04-30T17:10:09.505Z,21.43
2019-04-30T17:13:06.793Z,21.96
2019-04-30T17:15:38.771Z,22.35
2019-04-30T17:18:11.858Z,22.56
2019-04-30T17:20:40.327Z,22.88
2019-04-30T17:23:11.167Z,23.53
2019-04-30T17:25:41.736Z,23.11
2019-04-30T17:28:11.041Z,23.61
2019-04-30T17:30:41.156Z,23.70
2019-04-30T17:33:10.876Z,23.69
2019-04-30T17:35:40.485Z,24.19
2019-04-30T17:38:10.472Z,25.00
2019-04-30T17:40:41.402Z,25.57
2019-04-30T17:43:12.465Z,25.53
2019-04-30T17:45:42.274Z,25.56
2019-04-30T17:48:11.911Z,26.35
2019-04-30T17:50:41.271Z,26.72
2019-04-30T17:53:13.189Z,27.16
2019-04-30T17:55:42.167Z,27.19
2019-04-30T17:58:13.796Z,27.42
2019-04-30T18:00:48.767Z,27.33
2019-04-30T18:03:18.956Z,27.93
2019-04-30T18:05:51.213Z,27.62
2019-04-30T18:08:21.165Z,27.47
2019-04-30T18:10:51.054Z,27.73
2019-04-30T18:13:20.908Z,28.25
2019-04-30T18:15:50.622Z,28.09
2019-04-30T18:18:32.020Z,28.14
2019-04-30T18:21:32.844Z,28.20
2019-04-30T18:24:20.028Z,28.21
2019-04-30T18:27:01.183Z,28.89
2019-04-30T18:29:33.054Z,28.62
2019-04-30T18:32:09.326Z,28.97
2019-04-30T18:34:39.452Z,28.74
2019-04-30T18:37:09.297Z,29.40
2019-04-30T18:39:39.150Z,29.46
2019-04-30T18:42:11.018Z,29.60
2019-04-30T18:44:42.769Z,29.81
2019-04-30T18:47:15.126Z,29.78
2019-04-30T18:49:44.908Z,29.80
2019-04-30T18:52:16.284Z,29.99
2019-04-30T18:54:46.048Z,29.94
2019-04-30T18:57:16.111Z,29.92
2019-04-30T18:59:47.177Z,30.65
2019-04-30T19:02:17.405Z,31.05
2019-04-30T19:04:46.906Z,31.45
2019-04-30T19:07:42.136Z,31.55
2019-04-30T19:10:25.564Z,31.38
2019-04-30T19:13:15.870Z,31.27
2019-04-30T19:16:25.241Z,31.21
2019-04-30T19:18:51.288Z,31.56
2019-04-30T19:21:21.304Z,31.52
2019-04-30T19:23:51.800Z,31.56
2019-04-30T19:26:21.898Z,31.95
2019-04-30T19:28:51.708Z,32.02
2019-04-30T19:31:21.840Z,32.08
2019-04-30T19:33:51.453Z,32.55
2019-04-30T19:36:28.726Z,32.66
2019-04-30T19:38:53.015Z,32.38
2019-04-30T19:41:23.367Z,32.85
2019-04-30T19:43:53.021Z,33.04
2019-04-30T19:46:26.003Z,33.18
2019-04-30T19:48:56.159Z,33.41
2019-04-30T19:51:26.469Z,33.45
2019-04-30T19:53:59.809Z,33.77
2019-04-30T19:56:32.655Z,34.20
2019-04-30T19:59:05.271Z,34.41
2019-04-30T20:01:33.381Z,34.57
2019-04-30T20:04:04.876Z,34.38
2019-04-30T20:06:35.268Z,34.89
2019-04-30T20:09:08.793Z,35.26
2019-04-30T20:11:40.169Z,35.54
2019-04-30T20:14:10.476Z,36.51
2019-04-30T20:16:41.603Z,36.76
2019-04-30T20:19:11.475Z,37.11
2019-04-30T20:21:48.745Z,36.94
2019-04-30T20:24:12.719Z,37.47
2019-04-30T20:26:42.817Z,37.34
2019-04-30T20:29:13.951Z,37.17
2019-04-30T20:31:44.170Z,36.93
2019-04-30T20:34:13.804Z,36.95
2019-04-30T20:36:43.320Z,37.60
2019-04-30T20:39:29.281Z,37.93
2019-04-30T20:41:58.803Z,37.43
2019-04-30T20:44:29.123Z,37.68
2019-04-30T20:46:59.140Z,37.56
2019-04-30T20:49:29.211Z,37.52
2019-04-30T20:51:59.286Z,37.87
2019-04-30T20:54:29.262Z,38.01
2019-04-30T20:56:59.102Z,38.25
2019-04-30T20:59:29.818Z,38.36
2019-04-30T21:01:59.591Z,38.43
2019-04-30T21:04:29.782Z,38.82
2019-04-30T21:07:00.168Z,38.53
2019-04-30T21:09:32.057Z,38.57
2019-04-30T21:12:09.001Z,38.79
2019-04-30T21:14:45.543Z,39.06
2019-04-30T21:17:16.083Z,39.94
2019-04-30T21:19:45.973Z,39.51
2019-04-30T21:22:16.559Z,39.87
2019-04-30T21:24:46.615Z,39.97
2019-04-30T21:27:20.076Z,39.59
2019-04-30T21:34:06.743Z,39.56
2019-04-30T21:36:37.051Z,40.19
2019-04-30T21:39:08.979Z,40.20
2019-04-30T21:41:39.564Z,40.29
2019-04-30T21:44:09.096Z,40.46
2019-04-30T21:46:39.518Z,40.48
2019-04-30T21:49:12.447Z,40.50
2019-04-30T21:51:42.000Z,40.92
2019-04-30T21:54:11.429Z,40.61
2019-04-30T21:56:43.203Z,41.03
2019-04-30T21:59:23.729Z,41.26
2019-04-30T22:01:44.952Z,41.63
2019-04-30T22:04:16.144Z,41.55
2019-04-30T22:06:46.637Z,41.89
2019-04-30T22:09:16.134Z,41.87
2019-04-30T22:11:45.907Z,41.83
2019-04-30T22:14:15.164Z,42.10
2019-04-30T22:16:45.370Z,42.22
2019-04-30T22:19:15.209Z,42.63
2019-04-30T22:21:44.725Z,42.61
2019-04-30T22:24:14.537Z,42.84
2019-04-30T22:26:46.053Z,43.15
2019-04-30T22:29:15.874Z,43.09
2019-04-30T22:31:45.292Z,43.14
2019-04-30T22:34:17.751Z,42.81
2019-04-30T22:36:53.873Z,43.24
2019-04-30T22:39:46.648Z,43.75
2019-04-30T22:42:36.625Z,43.89
2019-04-30T22:45:33.174Z,43.70
2019-04-30T22:48:04.568Z,43.29
2019-04-30T22:50:43.776Z,43.83
2019-04-30T22:53:14.536Z,45.10
2019-04-30T22:58:24.222Z,44.88
2019-04-30T23:00:55.143Z,45.11
2019-04-30T23:03:29.068Z,44.93
2019-04-30T23:05:58.161Z,45.12
2019-04-30T23:08:27.235Z,45.16
2019-04-30T23:10:56.601Z,45.88
2019-04-30T23:13:25.713Z,45.60
2019-04-30T23:15:55.440Z,45.76
2019-04-30T23:18:24.842Z,45.96
2019-04-30T23:20:53.937Z,45.95
2019-04-30T23:23:23.018Z,45.67
2019-04-30T23:25:52.393Z,46.12
2019-04-30T23:28:21.512Z,46.47
2019-04-30T23:30:50.585Z,46.48
2019-04-30T23:33:20.973Z,46.25
2019-04-30T23:35:50.032Z,46.13
2019-04-30T23:38:19.200Z,45.81
2019-04-30T23:40:50.338Z,46.31
2019-04-30T23:43:19.629Z,45.97
2019-04-30T23:45:48.886Z,45.93
2019-04-30T23:48:18.283Z,45.95
2019-04-30T23:50:47.335Z,46.71
2019-04-30T23:53:16.409Z,46.42
2019-04-30T23:55:46.878Z,46.75
2019-04-30T23:58:15.978Z,46.28
